createdAt,value
2022-09-22T00:01:27.668Z,14.50
2022-09-22T00:03:58.267Z,14.50
2022-09-22T00:06:32.588Z,14.50
2022-09-22T00:09:01.592Z,14.50
2022-09-22T00:11:31.602Z,14.50
2022-09-22T00:14:09.083Z,14.50
2022-09-22T00:16:45.159Z,14.50
2022-09-22T00:19:19.692Z,14.50
2022-09-22T00:21:47.849Z,14.50
2022-09-22T00:24:16.726Z,14.50
2022-09-22T00:26:44.405Z,14.50
2022-09-22T00:29:11.842Z,14.50
2022-09-22T00:31:41.606Z,14.50
2022-09-22T00:34:15.156Z,14.40
2022-09-22T00:36:42.764Z,14.30
2022-09-22T00:39:10.498Z,14.30
2022-09-22T00:41:42.648Z,14.20
2022-09-22T00:44:21.390Z,14.20
2022-09-22T00:46:55.030Z,14.10
2022-09-22T00:49:43.560Z,14.10
2022-09-22T00:52:16.048Z,14.00
2022-09-22T00:54:43.168Z,13.90
2022-09-22T00:57:16.748Z,13.90
2022-09-22T00:59:45.021Z,13.80
2022-09-22T01:02:12.158Z,13.80
2022-09-22T01:04:40.922Z,13.70
2022-09-22T01:07:08.421Z,13.90
2022-09-22T01:09:35.423Z,13.60
2022-09-22T01:12:04.115Z,13.60
2022-09-22T01:15:19.434Z,13.50
2022-09-22T01:18:11.166Z,13.50
2022-09-22T01:20:53.710Z,13.50
2022-09-22T01:23:39.384Z,13.40
2022-09-22T01:26:49.915Z,13.40
2022-09-22T01:29:47.282Z,13.40
2022-09-22T01:32:30.294Z,13.40
2022-09-22T01:35:26.067Z,13.40
2022-09-22T01:38:25.426Z,13.40
2022-09-22T01:41:00.633Z,13.40
2022-09-22T01:43:42.663Z,13.40
2022-09-22T01:46:28.562Z,13.40
2022-09-22T01:49:00.716Z,13.40
2022-09-22T01:51:42.732Z,13.40
2022-09-22T01:54:22.980Z,13.40
2022-09-22T01:56:59.138Z,13.40
2022-09-22T01:59:30.274Z,13.40
2022-09-22T02:02:11.720Z,13.30
2022-09-22T02:04:47.108Z,13.30
2022-09-22T02:07:25.204Z,13.20
2022-09-22T02:10:24.811Z,13.20
2022-09-22T02:12:52.275Z,13.10
2022-09-22T02:15:38.674Z,13.30
2022-09-22T02:18:21.227Z,13.00
2022-09-22T02:20:52.947Z,12.90
2022-09-22T02:23:19.769Z,12.90
2022-09-22T02:25:47.451Z,12.90
2022-09-22T02:28:16.746Z,12.80
2022-09-22T02:30:59.113Z,12.70
2022-09-22T02:33:38.519Z,12.60
2022-09-22T02:36:46.948Z,12.60
2022-09-22T02:39:34.437Z,12.50
2022-09-22T02:42:12.570Z,12.40
2022-09-22T02:45:06.419Z,12.40
2022-09-22T02:47:59.692Z,12.30
2022-09-22T02:50:28.980Z,12.20
2022-09-22T02:53:04.428Z,12.20
2022-09-22T02:55:31.827Z,12.10
2022-09-22T02:57:58.919Z,12.10
2022-09-22T03:00:26.801Z,12.00
2022-09-22T03:02:53.856Z,12.00
2022-09-22T03:05:20.728Z,11.90
2022-09-22T03:07:47.744Z,11.90
2022-09-22T03:10:15.040Z,11.90
2022-09-22T03:13:08.954Z,11.80
2022-09-22T03:15:32.473Z,11.80
2022-09-22T03:17:59.289Z,11.70
2022-09-22T03:20:26.356Z,11.70
2022-09-22T03:22:53.364Z,11.70
2022-09-22T03:25:20.258Z,11.60
2022-09-22T03:27:50.977Z,11.60
2022-09-22T03:30:17.839Z,11.60
2022-09-22T03:32:45.237Z,11.50
2022-09-22T03:35:12.103Z,11.50
2022-09-22T03:37:38.960Z,11.40
2022-09-22T03:40:06.655Z,11.40
2022-09-22T03:42:35.222Z,11.30
2022-09-22T03:45:04.194Z,11.30
2022-09-22T03:47:31.851Z,11.20
2022-09-22T03:49:58.903Z,11.20
2022-09-22T03:52:25.836Z,11.20
2022-09-22T03:54:53.093Z,11.20
2022-09-22T03:57:21.873Z,11.10
2022-09-22T03:59:48.964Z,11.10
2022-09-22T04:02:16.030Z,11.00
2022-09-22T04:04:43.053Z,11.00
2022-09-22T04:07:10.087Z,11.00
2022-09-22T04:09:36.919Z,10.90
2022-09-22T04:12:04.146Z,10.90
2022-09-22T04:14:31.179Z,10.90
2022-09-22T04:16:58.007Z,10.90
2022-09-22T04:22:16.092Z,10.80
2022-09-22T04:24:42.932Z,10.80
2022-09-22T04:27:19.628Z,10.80
2022-09-22T04:29:47.860Z,10.80
2022-09-22T04:32:15.339Z,10.80
2022-09-22T04:34:43.398Z,10.80
2022-09-22T04:37:11.682Z,10.80
2022-09-22T04:39:38.643Z,10.80
2022-09-22T04:42:08.861Z,10.80
2022-09-22T04:44:35.784Z,10.80
2022-09-22T04:47:04.180Z,10.80
2022-09-22T04:49:31.123Z,10.80
2022-09-22T04:52:04.219Z,10.80
2022-09-22T04:54:31.450Z,10.70
2022-09-22T04:56:58.527Z,10.70
2022-09-22T04:59:27.477Z,10.70
2022-09-22T05:01:54.296Z,10.70
2022-09-22T05:04:21.699Z,10.70
2022-09-22T05:06:48.498Z,10.70
2022-09-22T05:09:15.465Z,10.70
2022-09-22T05:11:42.664Z,10.70
2022-09-22T05:14:09.641Z,10.70
2022-09-22T05:16:36.835Z,10.60
2022-09-22T05:19:04.001Z,10.60
2022-09-22T05:21:30.832Z,10.60
2022-09-22T05:23:58.205Z,10.60
2022-09-22T05:26:25.729Z,10.60
2022-09-22T05:29:18.358Z,10.60
2022-09-22T05:31:46.365Z,10.60
2022-09-22T05:34:13.551Z,10.60
2022-09-22T05:36:41.075Z,10.60
2022-09-22T05:39:08.014Z,10.60
2022-09-22T05:41:34.908Z,10.70
2022-09-22T05:44:02.331Z,10.60
2022-09-22T05:46:29.406Z,10.70
2022-09-22T05:48:56.292Z,10.70
2022-09-22T05:51:23.266Z,10.70
2022-09-22T05:53:50.284Z,10.70
2022-09-22T05:56:17.105Z,10.80
2022-09-22T05:58:43.984Z,10.80
2022-09-22T06:01:10.879Z,10.80
2022-09-22T06:03:38.035Z,10.90
2022-09-22T06:06:05.077Z,10.90
2022-09-22T06:08:32.333Z,11.00
2022-09-22T06:10:59.396Z,11.10
2022-09-22T06:13:26.222Z,11.20
2022-09-22T06:15:56.264Z,11.20
2022-09-22T06:18:25.689Z,11.30
2022-09-22T06:21:17.703Z,11.40
2022-09-22T06:23:48.916Z,11.50
2022-09-22T06:26:15.920Z,11.50
2022-09-22T06:28:43.272Z,11.60
2022-09-22T06:31:10.205Z,11.70
2022-09-22T06:33:37.043Z,11.80
2022-09-22T06:36:08.026Z,11.90
2022-09-22T06:38:34.914Z,12.10
2022-09-22T06:41:02.847Z,12.20
2022-09-22T06:43:29.701Z,12.40
2022-09-22T06:46:00.174Z,12.60
2022-09-22T06:48:28.160Z,12.80
2022-09-22T06:50:55.142Z,13.00
2022-09-22T06:53:26.755Z,13.20
2022-09-22T06:55:54.570Z,13.40
2022-09-22T06:58:24.016Z,13.70
2022-09-22T07:00:51.032Z,13.90
2022-09-22T07:03:25.588Z,14.20
2022-09-22T07:06:00.210Z,14.40
2022-09-22T07:08:30.541Z,14.80
2022-09-22T07:10:59.466Z,15.10
2022-09-22T07:13:29.832Z,15.40
2022-09-22T07:16:07.820Z,15.70
2022-09-22T07:18:40.136Z,16.10
2022-09-22T07:21:22.577Z,16.50
2022-09-22T07:23:52.016Z,16.90
2022-09-22T07:26:32.510Z,17.40
2022-09-22T07:29:03.961Z,17.80
2022-09-22T07:31:32.571Z,18.40
2022-09-22T07:34:00.249Z,18.70
2022-09-22T07:36:31.237Z,19.20
2022-09-22T07:39:05.884Z,19.70
2022-09-22T07:41:41.748Z,20.20
2022-09-22T07:44:30.317Z,20.70
2022-09-22T07:47:03.073Z,21.20
2022-09-22T07:49:30.780Z,21.70
2022-09-22T07:51:58.086Z,22.10
2022-09-22T07:54:26.826Z,22.60
2022-09-22T07:56:58.570Z,23.00
2022-09-22T07:59:26.556Z,23.40
2022-09-22T08:01:53.623Z,23.90
2022-09-22T08:04:22.713Z,24.30
2022-09-22T08:06:58.818Z,24.80
2022-09-22T08:09:26.377Z,25.10
2022-09-22T08:11:57.721Z,25.40
2022-09-22T08:14:24.696Z,25.70
2022-09-22T08:16:53.238Z,26.00
2022-09-22T08:19:23.422Z,26.20
2022-09-22T08:21:54.132Z,26.60
2022-09-22T08:24:22.711Z,26.70
2022-09-22T08:26:52.936Z,27.00
2022-09-22T08:29:21.105Z,27.30
2022-09-22T08:31:49.320Z,27.60
2022-09-22T08:34:17.928Z,27.80
2022-09-22T08:36:49.170Z,28.00
2022-09-22T08:39:18.027Z,28.40
2022-09-22T08:42:11.839Z,28.60
2022-09-22T08:44:56.196Z,29.10
2022-09-22T08:47:56.373Z,29.50
2022-09-22T08:50:52.787Z,29.90
2022-09-22T08:56:40.648Z,30.80
2022-09-22T08:59:19.699Z,31.20
2022-09-22T09:01:52.574Z,31.60
2022-09-22T09:04:55.605Z,31.70
2022-09-22T09:07:56.783Z,31.80
2022-09-22T09:13:46.092Z,32.20
2022-09-22T09:16:15.628Z,32.60
2022-09-22T09:18:53.090Z,33.00
2022-09-22T09:21:22.086Z,33.40
2022-09-22T09:26:42.691Z,34.30
2022-09-22T09:29:18.264Z,34.90
2022-09-22T09:31:53.193Z,35.30
2022-09-22T09:34:24.321Z,35.70
2022-09-22T09:37:13.142Z,36.10
2022-09-22T09:40:15.224Z,36.40
2022-09-22T09:42:43.672Z,36.90
2022-09-22T09:45:19.969Z,37.20
2022-09-22T09:48:30.287Z,37.60
2022-09-22T09:51:03.747Z,37.90
2022-09-22T09:53:40.930Z,38.10
2022-09-22T09:56:37.157Z,38.20
2022-09-22T10:02:23.957Z,38.20
2022-09-22T10:04:56.077Z,38.20
2022-09-22T10:10:41.061Z,38.20
2022-09-22T10:13:07.790Z,38.40
2022-09-22T10:15:38.392Z,38.50
2022-09-22T10:18:24.266Z,38.90
2022-09-22T10:21:22.502Z,39.10
2022-09-22T10:23:55.348Z,39.30
2022-09-22T10:26:30.525Z,39.30
2022-09-22T10:29:18.014Z,39.60
2022-09-22T10:32:21.034Z,39.70
2022-09-22T10:34:51.036Z,39.80
2022-09-22T10:37:28.849Z,39.80
2022-09-22T10:40:01.822Z,39.90
2022-09-22T10:42:57.582Z,39.90
2022-09-22T10:45:50.809Z,40.10
2022-09-22T10:48:36.528Z,40.00
2022-09-22T10:51:22.352Z,40.00
2022-09-22T10:54:35.900Z,39.90
2022-09-22T10:58:01.186Z,40.00
2022-09-22T11:00:29.231Z,40.40
2022-09-22T11:03:11.246Z,40.70
2022-09-22T11:06:30.888Z,41.20
2022-09-22T11:09:25.586Z,41.50
2022-09-22T11:12:31.630Z,41.50
2022-09-22T11:15:30.718Z,40.80
2022-09-22T11:18:25.052Z,40.20
2022-09-22T11:21:16.484Z,39.40
2022-09-22T11:24:09.756Z,38.40
2022-09-22T11:26:49.354Z,37.50
2022-09-22T11:29:52.581Z,36.50
2022-09-22T11:32:56.388Z,35.70
2022-09-22T11:35:56.233Z,34.90
2022-09-22T11:39:16.516Z,34.70
2022-09-22T11:41:58.360Z,34.80
2022-09-22T11:45:11.144Z,35.30
2022-09-22T11:47:51.816Z,35.80
2022-09-22T11:51:09.730Z,36.50
2022-09-22T11:53:50.760Z,37.30
2022-09-22T11:56:44.305Z,38.10
2022-09-22T11:59:27.892Z,38.90
2022-09-22T12:01:58.404Z,39.60
2022-09-22T12:04:43.672Z,40.40
2022-09-22T12:07:20.628Z,41.00
2022-09-22T12:10:31.308Z,41.50
2022-09-22T12:12:58.357Z,41.80
2022-09-22T12:15:40.466Z,42.10
2022-09-22T12:18:18.062Z,42.40
2022-09-22T12:20:49.534Z,42.70
2022-09-22T12:23:39.867Z,42.90
2022-09-22T12:26:11.115Z,42.60
2022-09-22T12:28:45.443Z,42.50
2022-09-22T12:31:15.652Z,42.30
2022-09-22T12:33:55.023Z,42.40
2022-09-22T12:36:33.549Z,42.50
2022-09-22T12:39:24.357Z,42.80
2022-09-22T12:42:05.987Z,43.10
2022-09-22T12:44:52.285Z,43.40
2022-09-22T12:47:33.859Z,43.60
2022-09-22T12:50:07.069Z,43.60
2022-09-22T12:52:40.267Z,43.60
2022-09-22T12:55:44.703Z,43.60
2022-09-22T12:58:20.807Z,43.70
2022-09-22T13:00:50.538Z,43.80
2022-09-22T13:03:26.310Z,44.00
2022-09-22T13:06:18.892Z,44.00
2022-09-22T13:08:48.366Z,44.10
2022-09-22T13:11:15.747Z,44.00
2022-09-22T13:13:44.636Z,43.80
2022-09-22T13:16:14.452Z,43.50
2022-09-22T13:19:01.159Z,43.20
2022-09-22T13:21:31.652Z,42.90
2022-09-22T13:24:01.658Z,42.60
2022-09-22T13:26:40.888Z,42.40
2022-09-22T13:29:21.872Z,42.40
2022-09-22T13:31:57.127Z,42.50
2022-09-22T13:34:35.696Z,42.30
2022-09-22T13:37:16.623Z,42.30
2022-09-22T13:39:47.881Z,42.20
2022-09-22T13:42:19.553Z,42.40
2022-09-22T13:45:30.474Z,42.50
2022-09-22T13:48:08.524Z,42.70
2022-09-22T13:50:49.262Z,42.80
2022-09-22T13:53:19.724Z,42.70
2022-09-22T13:55:51.404Z,42.80
2022-09-22T13:58:44.431Z,43.00
2022-09-22T14:01:23.876Z,43.10
2022-09-22T14:03:52.815Z,43.30
2022-09-22T14:06:22.073Z,43.30
2022-09-22T14:08:51.901Z,43.30
2022-09-22T14:11:28.889Z,43.30
2022-09-22T14:13:58.522Z,43.30
2022-09-22T14:16:49.737Z,43.20
2022-09-22T14:19:34.104Z,43.10
2022-09-22T14:22:04.920Z,43.10
2022-09-22T14:24:34.969Z,43.10
2022-09-22T14:27:06.139Z,43.00
2022-09-22T14:29:37.199Z,42.80
2022-09-22T14:32:24.636Z,42.40
2022-09-22T14:35:00.925Z,41.70
2022-09-22T14:37:32.172Z,41.00
2022-09-22T14:40:04.131Z,40.20
2022-09-22T14:42:34.024Z,39.40
2022-09-22T14:45:10.097Z,38.40
2022-09-22T14:47:40.370Z,37.50
2022-09-22T14:50:52.719Z,36.80
2022-09-22T14:53:30.116Z,35.80
2022-09-22T14:56:06.877Z,34.90
2022-09-22T14:58:40.448Z,34.10
2022-09-22T15:01:52.812Z,33.40
2022-09-22T15:04:30.348Z,32.50
2022-09-22T15:06:59.077Z,31.70
2022-09-22T15:09:37.077Z,30.80
2022-09-22T15:12:05.272Z,30.40
2022-09-22T15:14:36.669Z,29.80
2022-09-22T15:17:24.252Z,29.30
2022-09-22T15:19:57.069Z,28.70
2022-09-22T15:22:49.975Z,28.20
2022-09-22T15:25:17.229Z,27.80
2022-09-22T15:27:44.386Z,27.20
2022-09-22T15:30:18.428Z,26.70
2022-09-22T15:32:47.899Z,26.30
2022-09-22T15:35:18.985Z,25.90
2022-09-22T15:37:49.598Z,25.50
2022-09-22T15:40:21.105Z,25.20
2022-09-22T15:43:09.045Z,24.80
2022-09-22T15:45:47.530Z,24.50
2022-09-22T15:48:35.068Z,24.20
2022-09-22T15:51:05.903Z,23.80
2022-09-22T15:53:34.930Z,23.50
2022-09-22T15:56:06.053Z,23.30
2022-09-22T15:58:41.266Z,23.00
2022-09-22T16:01:08.408Z,22.70
2022-09-22T16:03:41.000Z,22.80
2022-09-22T16:06:13.284Z,22.20
2022-09-22T16:08:44.428Z,21.90
2022-09-22T16:11:28.278Z,21.80
2022-09-22T16:14:20.221Z,21.50
2022-09-22T16:16:47.043Z,21.30
2022-09-22T16:19:17.296Z,21.20
2022-09-22T16:21:57.025Z,21.00
2022-09-22T16:24:26.566Z,20.70
2022-09-22T16:26:53.478Z,20.50
2022-09-22T16:29:20.384Z,20.40
2022-09-22T16:31:47.303Z,20.20
2022-09-22T16:34:14.323Z,20.10
2022-09-22T16:36:41.877Z,19.90
2022-09-22T16:39:08.971Z,19.70
2022-09-22T16:41:36.695Z,19.50
2022-09-22T16:44:04.917Z,19.50
2022-09-22T16:46:38.268Z,19.20
2022-09-22T16:49:09.808Z,19.10
2022-09-22T16:51:51.742Z,18.90
2022-09-22T16:54:19.440Z,19.00
2022-09-22T16:56:49.166Z,18.60
2022-09-22T17:02:10.873Z,18.30
2022-09-22T17:04:37.766Z,18.20
2022-09-22T17:07:05.582Z,18.00
2022-09-22T17:09:32.783Z,17.90
2022-09-22T17:12:00.801Z,17.70
2022-09-22T17:14:28.997Z,17.60
2022-09-22T17:16:57.795Z,17.40
2022-09-22T17:19:27.812Z,17.30
2022-09-22T17:21:56.268Z,17.20
2022-09-22T17:24:25.690Z,17.00
2022-09-22T17:26:58.518Z,16.90
2022-09-22T17:29:32.457Z,16.80
2022-09-22T17:32:05.760Z,16.70
2022-09-22T17:34:34.416Z,16.50
2022-09-22T17:37:03.714Z,16.40
2022-09-22T17:39:31.863Z,16.30
2022-09-22T17:41:59.164Z,16.20
2022-09-22T17:44:28.894Z,16.10
2022-09-22T17:47:16.001Z,16.00
2022-09-22T17:50:30.893Z,15.90
2022-09-22T17:53:16.776Z,15.70
2022-09-22T17:55:43.700Z,15.60
2022-09-22T17:58:10.918Z,15.50
2022-09-22T18:03:29.120Z,15.30
2022-09-22T18:05:56.390Z,15.20
2022-09-22T18:08:24.902Z,15.00
2022-09-22T18:10:52.251Z,15.00
2022-09-22T18:13:19.526Z,14.90
2022-09-22T18:15:46.881Z,14.80
2022-09-22T18:18:13.853Z,14.70
2022-09-22T18:20:40.782Z,14.70
2022-09-22T18:23:12.463Z,14.60
2022-09-22T18:25:41.315Z,14.70
2022-09-22T18:28:11.984Z,14.50
2022-09-22T18:30:40.505Z,14.40
2022-09-22T18:33:09.563Z,14.30
2022-09-22T18:35:36.924Z,14.20
2022-09-22T18:38:03.873Z,14.10
2022-09-22T18:40:31.899Z,14.10
2022-09-22T18:42:59.395Z,14.00
2022-09-22T18:45:26.976Z,13.90
2022-09-22T18:47:55.227Z,13.90
2022-09-22T18:50:22.026Z,13.80
2022-09-22T18:52:49.061Z,13.70
2022-09-22T18:55:18.353Z,13.70
2022-09-22T18:57:47.745Z,13.60
2022-09-22T19:00:16.051Z,13.50
2022-09-22T19:02:44.220Z,13.50
2022-09-22T19:05:14.529Z,13.40
2022-09-22T19:07:44.109Z,13.30
2022-09-22T19:10:14.706Z,13.30
2022-09-22T19:12:43.071Z,13.20
2022-09-22T19:15:18.393Z,13.20
2022-09-22T19:17:49.721Z,13.10
2022-09-22T19:20:23.213Z,12.90
2022-09-22T19:22:50.644Z,13.00
2022-09-22T19:25:20.007Z,12.90
2022-09-22T19:28:15.578Z,12.80
2022-09-22T19:30:42.432Z,12.80
2022-09-22T19:33:34.134Z,12.70
2022-09-22T19:36:01.039Z,12.70
2022-09-22T19:38:27.893Z,12.80
2022-09-22T19:40:56.175Z,12.60
2022-09-22T19:43:24.558Z,12.50
2022-09-22T19:45:52.505Z,12.50
2022-09-22T19:48:19.676Z,12.40
2022-09-22T19:50:46.899Z,12.40
2022-09-22T19:53:15.238Z,12.30
2022-09-22T19:55:42.259Z,12.30
2022-09-22T19:58:09.951Z,12.20
2022-09-22T20:00:36.901Z,12.20
2022-09-22T20:03:04.313Z,12.10
2022-09-22T20:05:37.218Z,12.10
2022-09-22T20:08:06.348Z,12.10
2022-09-22T20:10:34.814Z,12.00
2022-09-22T20:13:21.695Z,12.00
2022-09-22T20:15:48.594Z,12.00
2022-09-22T20:18:15.485Z,11.90
2022-09-22T20:20:42.403Z,11.90
2022-09-22T20:23:10.105Z,11.80
2022-09-22T20:25:36.964Z,11.80
2022-09-22T20:28:05.072Z,11.80
2022-09-22T20:30:32.122Z,11.70
2022-09-22T20:32:59.240Z,11.70
2022-09-22T20:35:26.666Z,11.60
2022-09-22T20:37:57.533Z,11.60
2022-09-22T20:40:25.768Z,11.60
2022-09-22T20:42:56.938Z,11.50
2022-09-22T20:45:24.565Z,11.50
2022-09-22T20:47:51.772Z,11.60
2022-09-22T20:50:19.659Z,11.50
2022-09-22T20:52:47.163Z,11.40
2022-09-22T20:55:14.372Z,11.40
2022-09-22T20:57:41.666Z,11.40
2022-09-22T21:00:09.778Z,11.30
2022-09-22T21:02:36.770Z,11.30
2022-09-22T21:05:04.046Z,11.30
2022-09-22T21:07:32.373Z,11.30
2022-09-22T21:13:09.264Z,11.20
2022-09-22T21:15:36.692Z,11.20
2022-09-22T21:18:03.732Z,11.10
2022-09-22T21:20:31.177Z,11.10
2022-09-22T21:22:58.161Z,11.10
2022-09-22T21:25:25.496Z,11.10
2022-09-22T21:27:52.526Z,11.00
2022-09-22T21:30:19.420Z,11.00
2022-09-22T21:32:46.613Z,10.90
2022-09-22T21:35:16.565Z,10.90
2022-09-22T21:37:44.584Z,10.90
2022-09-22T21:40:11.511Z,10.90
2022-09-22T21:42:38.937Z,10.80
2022-09-22T21:45:06.517Z,11.00
2022-09-22T21:47:33.574Z,10.80
2022-09-22T21:50:00.449Z,10.70
2022-09-22T21:52:28.324Z,10.70
2022-09-22T21:54:56.032Z,10.70
2022-09-22T21:57:23.226Z,10.60
2022-09-22T21:59:54.822Z,10.60
2022-09-22T22:05:15.213Z,10.50
2022-09-22T22:07:42.767Z,10.60
2022-09-22T22:10:12.109Z,10.50
2022-09-22T22:12:39.504Z,10.40
2022-09-22T22:15:07.278Z,10.40
2022-09-22T22:17:34.308Z,10.40
2022-09-22T22:20:01.476Z,10.40
2022-09-22T22:22:28.373Z,10.30
2022-09-22T22:24:55.540Z,10.30
2022-09-22T22:27:22.414Z,10.30
2022-09-22T22:29:51.084Z,10.30
2022-09-22T22:32:17.896Z,10.30
2022-09-22T22:34:44.678Z,10.20
2022-09-22T22:37:12.088Z,10.20
2022-09-22T22:39:38.931Z,10.20
2022-09-22T22:42:07.151Z,10.10
2022-09-22T22:44:36.717Z,10.20
2022-09-22T22:47:05.149Z,10.10
2022-09-22T22:49:32.580Z,10.10
2022-09-22T22:52:00.241Z,10.10
2022-09-22T22:54:27.098Z,10.10
2022-09-22T22:56:53.878Z,10.00
2022-09-22T22:59:20.787Z,10.00
2022-09-22T23:01:47.863Z,10.00
2022-09-22T23:04:16.821Z,10.00
2022-09-22T23:06:44.334Z,10.00
2022-09-22T23:09:15.529Z,10.00
2022-09-22T23:11:43.616Z,10.00
2022-09-22T23:14:12.999Z,9.90
2022-09-22T23:16:43.298Z,9.90
2022-09-22T23:19:14.376Z,9.90
2022-09-22T23:21:41.477Z,9.90
2022-09-22T23:24:08.899Z,9.90
2022-09-22T23:26:37.542Z,9.90
2022-09-22T23:29:05.422Z,9.90
2022-09-22T23:31:32.655Z,9.80
2022-09-22T23:34:01.141Z,9.80
2022-09-22T23:36:32.642Z,9.80
2022-09-22T23:39:03.390Z,9.80
2022-09-22T23:41:32.736Z,9.80
2022-09-22T23:43:59.790Z,9.70
2022-09-22T23:46:26.800Z,9.70
2022-09-22T23:48:55.385Z,9.70
2022-09-22T23:51:23.012Z,9.70
2022-09-22T23:54:14.633Z,9.60
2022-09-22T23:56:41.648Z,9.70
2022-09-22T23:59:08.848Z,9.60
